createdAt,value
2022-08-08T00:00:53.280Z,77.30
2022-08-08T00:03:28.294Z,77.20
2022-08-08T00:06:41.989Z,76.90
2022-08-08T00:09:24.720Z,77.00
2022-08-08T00:12:10.598Z,77.10
2022-08-08T00:15:05.036Z,77.50
2022-08-08T00:18:05.851Z,77.10
2022-08-08T00:20:58.832Z,76.60
2022-08-08T00:23:55.982Z,76.70
2022-08-08T00:26:50.868Z,76.10
2022-08-08T00:29:45.594Z,76.20
2022-08-08T00:32:38.444Z,76.00
2022-08-08T00:35:26.087Z,75.70
2022-08-08T00:38:16.674Z,76.10
2022-08-08T00:41:54.595Z,76.30
2022-08-08T00:44:47.607Z,76.00
2022-08-08T00:48:30.478Z,76.00
2022-08-08T00:51:38.998Z,76.00
2022-08-08T00:54:42.098Z,75.90
2022-08-08T00:58:02.361Z,76.30
2022-08-08T01:00:47.082Z,76.20
2022-08-08T01:04:08.793Z,76.00
2022-08-08T01:07:54.827Z,76.00
2022-08-08T01:11:01.658Z,75.60
2022-08-08T01:14:05.664Z,76.00
2022-08-08T01:17:04.786Z,76.50
2022-08-08T01:20:18.286Z,76.20
2022-08-08T01:24:05.309Z,76.30
2022-08-08T01:26:49.208Z,76.70
2022-08-08T01:29:59.300Z,77.30
2022-08-08T01:32:59.220Z,78.30
2022-08-08T01:36:01.311Z,79.70
2022-08-08T01:38:58.769Z,81.20
2022-08-08T01:42:08.243Z,82.60
2022-08-08T01:44:44.302Z,83.50
2022-08-08T01:48:16.976Z,83.10
2022-08-08T01:52:04.830Z,84.10
2022-08-08T01:55:46.267Z,84.70
2022-08-08T01:58:11.905Z,82.60
2022-08-08T02:01:15.931Z,80.60
2022-08-08T02:04:32.320Z,79.00
2022-08-08T02:07:55.102Z,78.70
2022-08-08T02:10:45.167Z,79.30
2022-08-08T02:13:53.380Z,80.00
2022-08-08T02:16:36.088Z,80.60
2022-08-08T02:20:07.534Z,80.90
2022-08-08T02:23:05.111Z,80.80
2022-08-08T02:26:15.717Z,81.00
2022-08-08T02:29:07.620Z,80.90
2022-08-08T02:32:22.905Z,80.80
2022-08-08T02:35:12.145Z,80.60
2022-08-08T02:38:25.028Z,80.70
2022-08-08T02:42:04.407Z,80.90
2022-08-08T02:45:04.139Z,81.40
2022-08-08T02:48:26.210Z,81.60
2022-08-08T02:51:29.790Z,81.40
2022-08-08T02:54:56.839Z,81.40
2022-08-08T02:58:26.684Z,81.50
2022-08-08T03:01:55.187Z,81.60
2022-08-08T03:05:04.856Z,81.70
2022-08-08T03:07:58.014Z,81.80
2022-08-08T03:11:04.996Z,81.60
2022-08-08T03:16:00.168Z,81.00
2022-08-08T03:17:39.800Z,81.10
2022-08-08T03:20:10.611Z,81.20
2022-08-08T03:22:57.094Z,81.70
2022-08-08T03:25:35.676Z,82.20
2022-08-08T03:28:36.306Z,82.90
2022-08-08T03:31:25.488Z,83.80
2022-08-08T03:34:00.865Z,84.00
2022-08-08T03:36:30.399Z,84.20
2022-08-08T03:39:14.177Z,84.00
2022-08-08T03:42:28.361Z,83.50
2022-08-08T03:44:38.626Z,82.90
2022-08-08T03:47:19.911Z,82.20
2022-08-08T03:50:00.514Z,81.60
2022-08-08T03:52:31.843Z,81.30
2022-08-08T03:55:09.544Z,81.00
2022-08-08T03:58:33.454Z,80.50
2022-08-08T04:00:32.556Z,79.80
2022-08-08T04:03:11.491Z,79.20
2022-08-08T04:05:49.697Z,79.20
2022-08-08T04:08:33.689Z,79.30
2022-08-08T04:11:11.152Z,79.30
2022-08-08T04:14:04.359Z,79.30
2022-08-08T04:16:38.304Z,79.40
2022-08-08T04:19:23.378Z,79.70
2022-08-08T04:21:51.676Z,79.50
2022-08-08T04:24:29.502Z,79.30
2022-08-08T04:26:59.959Z,79.30
2022-08-08T04:29:36.686Z,79.10
2022-08-08T04:32:30.803Z,78.80
2022-08-08T04:35:01.499Z,78.40
2022-08-08T04:37:32.225Z,78.20
2022-08-08T04:40:06.971Z,77.50
2022-08-08T04:42:46.931Z,76.60
2022-08-08T04:45:26.899Z,76.40
2022-08-08T04:48:01.030Z,76.20
2022-08-08T04:50:34.171Z,76.00
2022-08-08T04:53:52.229Z,75.70
2022-08-08T04:55:57.117Z,75.90
2022-08-08T04:58:24.594Z,75.40
2022-08-08T05:01:11.309Z,75.10
2022-08-08T05:04:11.123Z,74.80
2022-08-08T05:06:28.988Z,74.40
2022-08-08T05:09:02.989Z,74.80
2022-08-08T05:11:39.634Z,75.10
2022-08-08T05:14:12.029Z,74.90
2022-08-08T05:16:50.968Z,74.40
2022-08-08T05:20:09.431Z,74.40
2022-08-08T05:22:11.827Z,74.00
2022-08-08T05:24:40.129Z,73.50
2022-08-08T05:27:07.885Z,73.00
2022-08-08T05:29:36.718Z,72.80
2022-08-08T05:32:09.536Z,72.50
2022-08-08T05:34:49.274Z,73.20
2022-08-08T05:37:51.717Z,71.60
2022-08-08T05:40:18.687Z,71.30
2022-08-08T05:43:39.125Z,71.70
2022-08-08T05:46:03.371Z,71.00
2022-08-08T05:48:34.557Z,70.30
2022-08-08T05:51:14.750Z,69.30
2022-08-08T05:54:25.516Z,69.00
2022-08-08T05:56:48.803Z,68.40
2022-08-08T05:59:58.765Z,67.90
2022-08-08T06:02:40.835Z,67.40
2022-08-08T06:05:34.816Z,67.00
2022-08-08T06:08:10.506Z,66.80
2022-08-08T06:10:55.577Z,66.30
2022-08-08T06:13:24.028Z,65.70
2022-08-08T06:15:57.520Z,65.60
2022-08-08T06:18:27.747Z,64.80
2022-08-08T06:21:03.636Z,64.60
2022-08-08T06:23:53.281Z,64.40
2022-08-08T06:26:45.515Z,64.10
2022-08-08T06:29:56.446Z,63.40
2022-08-08T06:32:31.272Z,63.30
2022-08-08T06:36:00.516Z,63.20
2022-08-08T06:38:02.091Z,63.40
2022-08-08T06:40:36.894Z,63.00
2022-08-08T06:43:09.579Z,62.00
2022-08-08T06:45:39.238Z,61.60
2022-08-08T06:48:06.972Z,61.20
2022-08-08T06:50:38.360Z,61.40
2022-08-08T06:53:17.241Z,61.10
2022-08-08T06:56:02.168Z,61.60
2022-08-08T06:58:33.512Z,60.60
2022-08-08T07:01:24.296Z,59.80
2022-08-08T07:04:36.923Z,59.70
2022-08-08T07:07:12.255Z,59.60
2022-08-08T07:10:10.291Z,59.50
2022-08-08T07:12:48.345Z,59.60
2022-08-08T07:15:32.157Z,59.50
2022-08-08T07:18:35.828Z,59.30
2022-08-08T07:21:18.729Z,59.00
2022-08-08T07:24:10.238Z,58.10
2022-08-08T07:26:46.872Z,57.40
2022-08-08T07:29:20.300Z,56.70
2022-08-08T07:32:10.397Z,56.20
2022-08-08T07:35:00.170Z,56.20
2022-08-08T07:37:55.690Z,55.80
2022-08-08T07:40:20.975Z,55.00
2022-08-08T07:42:56.986Z,54.90
2022-08-08T07:45:26.433Z,54.90
2022-08-08T07:48:05.143Z,54.40
2022-08-08T07:50:35.055Z,54.30
2022-08-08T07:54:01.084Z,54.10
2022-08-08T07:56:35.779Z,54.40
2022-08-08T07:59:14.786Z,54.60
2022-08-08T08:02:34.768Z,54.80
2022-08-08T08:05:01.017Z,54.70
2022-08-08T08:07:38.595Z,54.00
2022-08-08T08:10:12.823Z,53.30
2022-08-08T08:12:56.802Z,52.90
2022-08-08T08:15:32.130Z,52.70
2022-08-08T08:18:05.912Z,52.70
2022-08-08T08:20:42.290Z,52.30
2022-08-08T08:23:09.651Z,51.60
2022-08-08T08:25:43.619Z,51.40
2022-08-08T08:28:21.211Z,51.10
2022-08-08T08:30:54.821Z,50.20
2022-08-08T08:33:24.842Z,49.40
2022-08-08T08:36:17.977Z,49.40
2022-08-08T08:38:49.626Z,49.40
2022-08-08T08:41:25.396Z,49.20
2022-08-08T08:44:13.872Z,49.30
2022-08-08T08:46:55.669Z,49.40
2022-08-08T08:49:30.634Z,49.00
2022-08-08T08:52:04.830Z,47.70
2022-08-08T08:54:36.320Z,47.10
2022-08-08T08:57:17.150Z,46.50
2022-08-08T09:00:00.141Z,46.00
2022-08-08T09:02:37.289Z,45.70
2022-08-08T09:05:29.082Z,45.50
2022-08-08T09:08:18.222Z,45.40
2022-08-08T09:10:51.006Z,45.30
2022-08-08T09:13:25.319Z,45.20
2022-08-08T09:16:03.497Z,45.60
2022-08-08T09:18:31.967Z,45.60
2022-08-08T09:22:01.317Z,45.10
2022-08-08T09:23:50.183Z,45.30
2022-08-08T09:26:47.166Z,45.20
2022-08-08T09:29:26.075Z,45.70
2022-08-08T09:32:06.367Z,45.20
2022-08-08T09:34:45.683Z,45.30
2022-08-08T09:37:58.321Z,45.90
2022-08-08T09:40:18.725Z,46.40
2022-08-08T09:42:51.824Z,47.00
2022-08-08T09:45:55.389Z,48.50
2022-08-08T09:48:38.965Z,48.70
2022-08-08T09:51:11.280Z,49.20
2022-08-08T09:54:05.169Z,49.00
2022-08-08T09:56:44.444Z,48.70
2022-08-08T09:59:50.390Z,48.40
2022-08-08T10:02:12.231Z,48.50
2022-08-08T10:04:47.722Z,48.10
2022-08-08T10:07:27.003Z,48.10
2022-08-08T10:10:07.118Z,48.40
2022-08-08T10:12:53.152Z,48.20
2022-08-08T10:15:24.220Z,48.20
2022-08-08T10:18:06.663Z,48.70
2022-08-08T10:20:57.767Z,49.20
2022-08-08T10:23:58.954Z,50.40
2022-08-08T10:26:52.097Z,50.30
2022-08-08T10:30:05.980Z,50.70
2022-08-08T10:32:37.755Z,52.00
2022-08-08T10:36:01.964Z,54.40
2022-08-08T10:38:13.733Z,56.10
2022-08-08T10:40:45.900Z,57.90
2022-08-08T10:43:14.406Z,59.00
2022-08-08T10:45:56.948Z,59.30
2022-08-08T10:48:56.834Z,60.60
2022-08-08T10:51:51.493Z,63.20
2022-08-08T10:54:26.894Z,64.20
2022-08-08T10:57:01.108Z,63.50
2022-08-08T10:59:39.550Z,64.80
2022-08-08T11:02:11.189Z,65.60
2022-08-08T11:04:53.629Z,65.90
2022-08-08T11:08:30.923Z,66.10
2022-08-08T11:10:29.250Z,67.30
2022-08-08T11:13:27.178Z,64.30
2022-08-08T11:15:58.715Z,62.60
2022-08-08T11:18:32.392Z,61.60
2022-08-08T11:21:08.932Z,60.70
2022-08-08T11:23:43.698Z,59.40
2022-08-08T11:26:23.514Z,58.20
2022-08-08T11:29:07.385Z,56.60
2022-08-08T11:31:49.023Z,56.30
2022-08-08T11:34:23.513Z,53.80
2022-08-08T11:36:59.109Z,52.60
2022-08-08T11:39:37.624Z,53.00
2022-08-08T11:42:08.959Z,52.50
2022-08-08T11:44:37.965Z,53.10
2022-08-08T11:47:12.746Z,51.20
2022-08-08T11:49:42.792Z,51.20
2022-08-08T11:52:18.512Z,51.90
2022-08-08T11:54:56.414Z,51.50
2022-08-08T11:57:30.232Z,52.20
2022-08-08T12:00:09.839Z,51.50
2022-08-08T12:02:57.418Z,51.40
2022-08-08T12:05:41.627Z,51.30
2022-08-08T12:08:10.381Z,51.10
2022-08-08T12:10:52.936Z,51.10
2022-08-08T12:13:37.834Z,51.10
2022-08-08T12:16:31.886Z,50.90
2022-08-08T12:19:15.013Z,50.80
2022-08-08T12:22:00.685Z,50.20
2022-08-08T12:24:53.780Z,50.60
2022-08-08T12:27:26.649Z,51.00
2022-08-08T12:30:15.979Z,50.90
2022-08-08T12:32:49.455Z,51.30
2022-08-08T12:35:24.254Z,51.40
2022-08-08T12:38:16.577Z,52.20
2022-08-08T12:41:07.006Z,54.10
2022-08-08T12:44:00.538Z,55.00
2022-08-08T12:46:30.211Z,56.00
2022-08-08T12:51:59.265Z,56.50
2022-08-08T12:54:30.095Z,57.40
2022-08-08T12:57:11.786Z,58.00
2022-08-08T13:00:04.854Z,57.50
2022-08-08T13:02:51.203Z,57.10
2022-08-08T13:05:27.018Z,57.10
2022-08-08T13:08:22.181Z,57.50
2022-08-08T13:11:04.263Z,57.70
2022-08-08T13:13:37.671Z,58.40
2022-08-08T13:16:25.915Z,58.20
2022-08-08T13:19:06.637Z,57.70
2022-08-08T13:21:53.311Z,56.60
2022-08-08T13:24:40.688Z,56.90
2022-08-08T13:27:20.834Z,56.40
2022-08-08T13:29:57.932Z,56.60
2022-08-08T13:32:28.930Z,56.70
2022-08-08T13:35:00.347Z,57.10
2022-08-08T13:38:04.721Z,57.60
2022-08-08T13:40:27.098Z,58.10
2022-08-08T13:42:58.361Z,58.40
2022-08-08T13:45:27.070Z,58.50
2022-08-08T13:48:03.975Z,58.50
2022-08-08T13:50:50.877Z,57.70
2022-08-08T13:53:37.723Z,55.80
2022-08-08T13:56:11.718Z,55.70
2022-08-08T13:58:57.175Z,54.60
2022-08-08T14:01:52.582Z,54.20
2022-08-08T14:04:26.110Z,54.70
2022-08-08T14:07:07.295Z,54.80
2022-08-08T14:10:05.883Z,54.70
2022-08-08T14:12:37.061Z,55.30
2022-08-08T14:15:07.576Z,56.20
2022-08-08T14:17:58.605Z,56.90
2022-08-08T14:20:56.565Z,56.80
2022-08-08T14:24:04.214Z,57.10
2022-08-08T14:26:46.481Z,56.90
2022-08-08T14:29:28.840Z,56.70
2022-08-08T14:32:12.580Z,56.40
2022-08-08T14:34:43.062Z,56.10
2022-08-08T14:37:13.116Z,55.90
2022-08-08T14:39:53.765Z,55.90
2022-08-08T14:42:55.242Z,56.30
2022-08-08T14:45:46.927Z,56.10
2022-08-08T14:48:27.360Z,56.70
2022-08-08T14:51:07.678Z,56.50
2022-08-08T14:53:55.060Z,56.60
2022-08-08T14:56:25.992Z,56.70
2022-08-08T14:58:55.074Z,57.30
2022-08-08T15:01:37.560Z,57.70
2022-08-08T15:04:10.376Z,57.90
2022-08-08T15:06:39.059Z,57.50
2022-08-08T15:09:09.851Z,57.70
2022-08-08T15:11:46.206Z,58.20
2022-08-08T15:14:26.767Z,59.00
2022-08-08T15:16:55.343Z,60.30
2022-08-08T15:19:28.150Z,60.90
2022-08-08T15:21:57.941Z,61.30
2022-08-08T15:24:31.450Z,61.30
2022-08-08T15:27:15.109Z,61.50
2022-08-08T15:29:48.763Z,61.80
2022-08-08T15:32:31.514Z,61.50
2022-08-08T15:35:09.242Z,60.90
2022-08-08T15:37:42.613Z,61.20
2022-08-08T15:40:11.286Z,61.10
2022-08-08T15:42:46.615Z,61.30
2022-08-08T15:45:16.999Z,61.20
2022-08-08T15:48:04.161Z,61.40
2022-08-08T15:51:01.626Z,61.80
2022-08-08T15:53:49.386Z,62.00
2022-08-08T15:56:20.111Z,62.20
2022-08-08T15:58:49.337Z,62.30
2022-08-08T16:01:20.972Z,62.70
2022-08-08T16:03:52.253Z,63.20
2022-08-08T16:06:28.621Z,63.40
2022-08-08T16:13:05.741Z,64.10
2022-08-08T16:13:13.851Z,63.80
2022-08-08T16:14:53.533Z,64.10
2022-08-08T16:17:38.866Z,64.40
2022-08-08T16:20:15.453Z,64.10
2022-08-08T16:22:49.481Z,63.90
2022-08-08T16:25:20.521Z,64.10
2022-08-08T16:27:57.917Z,63.80
2022-08-08T16:30:32.424Z,63.90
2022-08-08T16:33:04.323Z,63.80
2022-08-08T16:35:34.100Z,63.80
2022-08-08T16:38:01.495Z,63.40
2022-08-08T16:40:30.004Z,63.30
2022-08-08T16:42:57.807Z,63.10
2022-08-08T16:46:36.911Z,63.10
2022-08-08T16:48:17.554Z,62.90
2022-08-08T16:50:48.240Z,62.90
2022-08-08T16:55:06.931Z,62.30
2022-08-08T16:56:04.179Z,62.10
2022-08-08T16:58:39.499Z,61.90
2022-08-08T17:01:15.493Z,61.60
2022-08-08T17:03:58.011Z,61.60
2022-08-08T17:06:36.441Z,61.20
2022-08-08T17:09:07.441Z,60.60
2022-08-08T17:11:48.685Z,60.50
2022-08-08T17:14:27.506Z,60.60
2022-08-08T17:17:41.365Z,60.90
2022-08-08T17:19:54.817Z,61.20
2022-08-08T17:22:38.976Z,61.30
2022-08-08T17:25:11.718Z,61.00
2022-08-08T17:27:45.998Z,60.60
2022-08-08T17:30:27.145Z,60.10
2022-08-08T17:34:35.634Z,60.00
2022-08-08T17:35:55.254Z,59.90
2022-08-08T17:38:31.303Z,60.10
2022-08-08T17:41:00.221Z,60.70
2022-08-08T17:43:32.160Z,61.20
2022-08-08T17:46:39.630Z,61.30
2022-08-08T17:49:16.321Z,61.80
2022-08-08T17:51:51.763Z,61.60
2022-08-08T17:54:22.243Z,61.40
2022-08-08T17:56:54.493Z,61.60
2022-08-08T17:59:23.403Z,61.60
2022-08-08T18:02:03.238Z,61.60
2022-08-08T18:04:35.970Z,62.00
2022-08-08T18:08:01.927Z,62.40
2022-08-08T18:09:57.909Z,62.70
2022-08-08T18:12:25.872Z,63.10
2022-08-08T18:14:54.110Z,63.00
2022-08-08T18:17:28.583Z,63.20
2022-08-08T18:20:43.191Z,63.30
2022-08-08T18:23:01.326Z,63.80
2022-08-08T18:25:37.675Z,64.50
2022-08-08T18:28:05.625Z,65.10
2022-08-08T18:30:34.729Z,65.20
2022-08-08T18:33:02.926Z,65.50
2022-08-08T18:35:41.831Z,65.80
2022-08-08T18:38:17.414Z,66.00
2022-08-08T18:40:47.063Z,66.40
2022-08-08T18:43:16.572Z,66.90
2022-08-08T18:46:55.506Z,66.80
2022-08-08T18:48:33.927Z,67.10
2022-08-08T18:51:09.833Z,67.20
2022-08-08T18:54:03.039Z,67.50
2022-08-08T18:56:40.140Z,67.50
2022-08-08T18:59:07.541Z,67.50
2022-08-08T19:02:25.117Z,67.60
2022-08-08T19:04:23.511Z,67.60
2022-08-08T19:06:55.247Z,67.60
2022-08-08T19:09:23.223Z,67.80
2022-08-08T19:12:14.559Z,67.90
2022-08-08T19:14:42.718Z,68.10
2022-08-08T19:17:11.149Z,68.30
2022-08-08T19:19:44.156Z,68.30
2022-08-08T19:22:12.346Z,68.40
2022-08-08T19:25:05.119Z,68.60
2022-08-08T19:27:56.827Z,68.90
2022-08-08T19:30:26.298Z,69.30
2022-08-08T19:32:58.123Z,69.70
2022-08-08T19:35:45.169Z,70.10
2022-08-08T19:38:17.369Z,70.50
2022-08-08T19:40:55.910Z,70.80
2022-08-08T19:43:28.344Z,71.00
2022-08-08T19:45:59.808Z,71.00
2022-08-08T19:48:30.811Z,71.30
2022-08-08T19:51:01.938Z,71.60
2022-08-08T19:53:54.093Z,71.70
2022-08-08T19:56:25.804Z,71.90
2022-08-08T19:59:11.818Z,72.10
2022-08-08T20:02:01.910Z,72.30
2022-08-08T20:04:33.202Z,72.40
2022-08-08T20:08:26.776Z,72.90
2022-08-08T20:09:55.721Z,73.00
2022-08-08T20:12:32.619Z,73.20
2022-08-08T20:15:14.774Z,73.60
2022-08-08T20:17:47.475Z,73.80
2022-08-08T20:20:22.093Z,74.00
2022-08-08T20:22:58.470Z,74.10
2022-08-08T20:25:34.503Z,74.30
2022-08-08T20:28:06.605Z,74.50
2022-08-08T20:30:55.911Z,74.60
2022-08-08T20:33:27.271Z,74.70
2022-08-08T20:36:17.212Z,74.80
2022-08-08T20:38:51.798Z,74.90
2022-08-08T20:41:19.544Z,75.00
2022-08-08T20:43:49.967Z,74.90
2022-08-08T20:46:25.591Z,75.00
2022-08-08T20:48:58.463Z,75.20
2022-08-08T20:51:32.565Z,75.10
2022-08-08T20:54:13.992Z,75.10
2022-08-08T20:57:04.664Z,75.30
2022-08-08T20:59:40.997Z,75.70
2022-08-08T21:02:12.594Z,76.00
2022-08-08T21:04:47.670Z,76.10
2022-08-08T21:07:17.886Z,76.40
2022-08-08T21:10:16.733Z,76.50
2022-08-08T21:12:53.099Z,76.70
2022-08-08T21:16:06.000Z,76.70
2022-08-08T21:18:14.487Z,76.70
2022-08-08T21:20:42.573Z,76.60
2022-08-08T21:23:18.543Z,76.70
2022-08-08T21:25:54.995Z,76.90
2022-08-08T21:28:36.052Z,77.20
2022-08-08T21:31:22.652Z,77.50
2022-08-08T21:33:52.499Z,77.80
2022-08-08T21:36:29.412Z,78.30
2022-08-08T21:38:58.881Z,78.80
2022-08-08T21:41:38.516Z,79.20
2022-08-08T21:44:16.219Z,79.50
2022-08-08T21:48:04.552Z,79.50
2022-08-08T21:49:38.370Z,79.70
2022-08-08T21:54:36.379Z,80.10
2022-08-08T21:56:18.862Z,80.30
2022-08-08T21:58:05.920Z,80.60
2022-08-08T22:00:40.950Z,80.80
2022-08-08T22:03:11.020Z,80.80
2022-08-08T22:05:42.990Z,81.00
2022-08-08T22:08:10.475Z,81.20
2022-08-08T22:10:38.513Z,81.30
2022-08-08T22:13:17.106Z,81.30
2022-08-08T22:15:59.520Z,81.30
2022-08-08T22:18:32.824Z,81.50
2022-08-08T22:21:13.790Z,81.60
2022-08-08T22:23:52.238Z,81.60
2022-08-08T22:26:29.180Z,81.80
2022-08-08T22:29:14.593Z,81.70
2022-08-08T22:31:58.299Z,81.50
2022-08-08T22:34:39.433Z,81.30
2022-08-08T22:37:49.676Z,81.20
2022-08-08T22:40:07.687Z,80.90
2022-08-08T22:42:47.063Z,80.70
2022-08-08T22:45:16.073Z,80.60
2022-08-08T22:47:47.357Z,80.50
2022-08-08T22:50:25.989Z,80.60
2022-08-08T22:54:28.321Z,80.60
2022-08-08T22:55:59.751Z,80.50
2022-08-08T22:58:34.104Z,80.40
2022-08-08T23:02:01.229Z,80.30
2022-08-08T23:04:03.258Z,80.30
2022-08-08T23:06:33.499Z,80.40
2022-08-08T23:09:01.361Z,80.50
2022-08-08T23:12:27.733Z,80.60
2022-08-08T23:14:28.525Z,80.50
2022-08-08T23:16:59.687Z,80.20
2022-08-08T23:19:32.483Z,80.10
2022-08-08T23:22:06.749Z,79.90
2022-08-08T23:24:41.718Z,79.80
2022-08-08T23:27:38.173Z,79.60
2022-08-08T23:30:09.287Z,79.60
2022-08-08T23:32:43.966Z,79.50
2022-08-08T23:35:17.374Z,79.50
2022-08-08T23:38:02.591Z,80.40
2022-08-08T23:40:34.108Z,79.80
2022-08-08T23:43:04.598Z,80.30
2022-08-08T23:49:01.116Z,80.70
2022-08-08T23:49:05.810Z,80.80
2022-08-08T23:51:12.757Z,80.80
2022-08-08T23:54:39.630Z,80.90
2022-08-08T23:56:50.904Z,80.90
2022-08-08T23:59:20.961Z,81.10
